Time;durP1;ratioP1;P1;durP2;ratioP2;P2;SDS_P1;SDS_P2;PMS_P1;PMS_P2;Temp;Humidity;BMP_temperature;BMP_pressure;BME280_temperature;BME280_humidity;BME280_pressure;Samples;Min_cycle;Max_cycle;Signal;HPM_P1;HPM_P2
2022/07/01 00:01:44;;;;;;;1.58;0.30;;;16.40;99.90;;;;;;6223982;23;20049;-88
2022/07/01 00:04:16;;;;;;;1.23;0.32;;;16.40;99.90;;;;;;6201190;23;20073;-88
2022/07/01 00:06:45;;;;;;;1.35;0.50;;;16.40;99.90;;;;;;6250879;23;20016;-87
2022/07/01 00:09:11;;;;;;;2.53;0.40;;;16.40;99.90;;;;;;6200518;23;20444;-87
2022/07/01 00:15:38;;;;;;;1.10;0.30;;;16.40;99.90;;;;;;6249873;23;20094;-88
2022/07/01 00:18:04;;;;;;;1.73;0.50;;;16.40;99.90;;;;;;6169165;23;20027;-89
2022/07/01 00:20:30;;;;;;;2.33;0.30;;;16.40;99.90;;;;;;6195167;23;20379;-89
2022/07/01 00:22:55;;;;;;;1.65;0.20;;;16.40;99.90;;;;;;6194373;23;20024;-87
2022/07/01 00:25:21;;;;;;;0.68;0.35;;;16.40;99.90;;;;;;6219825;23;20047;-87
2022/07/01 00:27:47;;;;;;;1.30;0.30;;;16.40;99.90;;;;;;6246680;23;20349;-88
2022/07/01 00:30:19;;;;;;;2.50;0.30;;;16.40;99.90;;;;;;6220616;23;20027;-87
2022/07/01 00:32:46;;;;;;;0.85;0.43;;;16.40;99.90;;;;;;6194848;23;20030;-89
2022/07/01 00:35:12;;;;;;;0.38;0.20;;;16.40;99.90;;;;;;6194670;23;20349;-87
2022/07/01 00:37:39;;;;;;;2.28;0.82;;;16.40;99.90;;;;;;6219807;23;20016;-88
2022/07/01 00:40:05;;;;;;;1.77;0.50;;;16.50;99.90;;;;;;6246649;23;20349;-88
2022/07/01 00:42:31;;;;;;;;;;;16.40;99.90;;;;;;6220335;23;20407;-88
2022/07/01 00:44:57;;;;;;;1.08;0.30;;;16.40;99.90;;;;;;6244976;23;20237;-89
2022/07/01 00:47:24;;;;;;;1.35;0.40;;;16.40;99.90;;;;;;6219697;23;20016;-89
2022/07/01 00:49:50;;;;;;;0.95;0.30;;;16.30;99.90;;;;;;6219663;23;20024;-88
2022/07/01 00:52:15;;;;;;;0.55;0.30;;;16.30;99.90;;;;;;6194616;23;20016;-88
2022/07/01 00:54:43;;;;;;;1.60;0.50;;;16.30;99.90;;;;;;6219739;23;20020;-88
2022/07/01 00:57:10;;;;;;;0.60;0.30;;;16.30;99.90;;;;;;6219566;23;20090;-87
2022/07/01 00:59:38;;;;;;;2.65;0.50;;;16.30;99.90;;;;;;6194393;23;20016;-88
2022/07/01 01:02:06;;;;;;;1.88;0.28;;;16.30;99.90;;;;;;6219638;23;20131;-88
2022/07/01 01:04:32;;;;;;;1.05;0.30;;;16.30;99.90;;;;;;6194301;23;20019;-88
2022/07/01 01:07:00;;;;;;;0.82;0.40;;;16.30;99.90;;;;;;6219559;23;20401;-89
2022/07/01 01:09:27;;;;;;;0.55;0.30;;;16.30;99.90;;;;;;6219332;23;20019;-89
2022/07/01 01:11:53;;;;;;;1.02;0.40;;;16.30;99.90;;;;;;6194284;23;20027;-88
2022/07/01 01:14:19;;;;;;;2.45;0.85;;;16.30;99.90;;;;;;6246400;23;20016;-87
2022/07/01 01:16:44;;;;;;;0.80;0.30;;;16.30;99.90;;;;;;6194478;23;20008;-88
2022/07/01 01:19:10;;;;;;;0.98;0.40;;;16.20;99.90;;;;;;6194529;23;20016;-88
2022/07/01 01:21:36;;;;;;;0.70;0.22;;;16.20;99.90;;;;;;6219514;23;20016;-88
2022/07/01 01:24:02;;;;;;;2.72;0.32;;;16.20;99.90;;;;;;6194093;23;20008;-87
2022/07/01 01:26:29;;;;;;;1.42;0.30;;;16.20;99.90;;;;;;6194163;23;20024;-90
2022/07/01 01:28:55;;;;;;;1.55;0.28;;;16.20;99.90;;;;;;6246185;23;20382;-87
2022/07/01 01:31:29;;;;;;;0.55;0.30;;;16.20;99.90;;;;;;6194279;23;20023;-87
2022/07/01 01:33:55;;;;;;;2.65;0.40;;;16.20;99.90;;;;;;6194182;23;20433;-86
2022/07/01 01:36:21;;;;;;;1.17;0.40;;;16.20;99.90;;;;;;6194191;23;20020;-89
2022/07/01 01:38:47;;;;;;;1.17;0.50;;;16.20;99.90;;;;;;6246043;23;20388;-89
2022/07/01 01:41:12;;;;;;;0.88;0.40;;;16.20;99.90;;;;;;6194141;23;20015;-87
2022/07/01 01:43:38;;;;;;;1.17;0.60;;;16.20;99.90;;;;;;6219272;23;20070;-88
2022/07/01 01:46:04;;;;;;;1.30;0.50;;;16.20;99.90;;;;;;6245619;23;20082;-88
2022/07/01 01:48:31;;;;;;;1.05;0.50;;;16.20;99.90;;;;;;6246012;23;20019;-88
2022/07/01 01:50:56;;;;;;;;;;;16.20;99.90;;;;;;6219809;23;20019;-87
2022/07/01 01:53:22;;;;;;;1.30;0.60;;;16.20;99.90;;;;;;6244328;23;19915;-88
2022/07/01 01:55:48;;;;;;;1.20;0.60;;;16.20;99.90;;;;;;6193955;23;20070;-88
2022/07/01 01:58:15;;;;;;;2.67;0.65;;;16.20;99.90;;;;;;6194321;23;20024;-88
2022/07/01 02:00:41;;;;;;;1.40;0.50;;;16.20;99.90;;;;;;6218732;23;20323;-87
2022/07/01 02:03:06;;;;;;;2.63;0.93;;;16.10;99.90;;;;;;6194022;23;20027;-87
2022/07/01 02:05:33;;;;;;;1.58;0.60;;;16.20;99.90;;;;;;6219023;23;20024;-88
2022/07/01 02:07:59;;;;;;;1.33;0.75;;;16.10;99.90;;;;;;6218852;23;20012;-87
2022/07/01 02:10:25;;;;;;;1.48;1.02;;;16.10;99.90;;;;;;6218915;23;20109;-86
2022/07/01 02:12:50;;;;;;;1.73;0.70;;;16.10;99.90;;;;;;6219158;23;20012;-86
2022/07/01 02:15:16;;;;;;;1.10;0.50;;;16.10;99.90;;;;;;6193910;23;20043;-88
2022/07/01 02:17:42;;;;;;;1.27;0.57;;;16.10;99.90;;;;;;6193712;23;20016;-89
2022/07/01 02:20:08;;;;;;;1.80;0.60;;;16.10;99.90;;;;;;6218862;23;20067;-88
2022/07/01 02:22:34;;;;;;;1.65;0.70;;;16.10;99.90;;;;;;6193389;23;20012;-88
2022/07/01 02:25:00;;;;;;;1.23;0.60;;;16.10;99.90;;;;;;6218706;23;20563;-88
2022/07/01 02:27:26;;;;;;;3.53;1.00;;;16.10;99.90;;;;;;6193834;23;20078;-88
2022/07/01 02:29:51;;;;;;;3.80;1.23;;;16.10;99.90;;;;;;6193632;23;20070;-88
2022/07/01 02:32:18;;;;;;;1.77;0.82;;;16.00;99.90;;;;;;6193849;23;20013;-88
2022/07/01 02:34:44;;;;;;;2.15;0.98;;;16.00;99.90;;;;;;6218770;23;20131;-88
2022/07/01 02:37:10;;;;;;;1.70;0.65;;;16.10;99.90;;;;;;6218847;23;20056;-90
2022/07/01 02:39:36;;;;;;;1.40;0.60;;;16.00;99.90;;;;;;6218670;23;20078;-86
2022/07/01 02:44:45;;;;;;;1.33;0.57;;;16.00;99.90;;;;;;6243900;23;20066;-86
2022/07/01 02:47:11;;;;;;;1.83;0.57;;;16.00;99.90;;;;;;6245767;23;20016;-87
2022/07/01 02:49:39;;;;;;;1.80;0.73;;;15.90;99.90;;;;;;6245480;23;20460;-87
2022/07/01 02:52:05;;;;;;;1.58;0.60;;;16.00;99.90;;;;;;6218805;23;20023;-88
2022/07/01 02:54:30;;;;;;;1.52;0.60;;;16.00;99.90;;;;;;6193871;23;20099;-88
2022/07/01 02:56:56;;;;;;;1.73;0.60;;;16.00;99.90;;;;;;6245491;23;20051;-88
2022/07/01 02:59:22;;;;;;;0.98;0.57;;;15.90;99.90;;;;;;6193589;23;20016;-87
2022/07/01 03:01:47;;;;;;;1.55;0.60;;;15.90;99.90;;;;;;6246331;23;20020;-88
2022/07/01 03:04:13;;;;;;;0.90;0.45;;;15.90;99.90;;;;;;6219738;23;20345;-87
2022/07/01 03:06:40;;;;;;;1.27;0.60;;;15.90;99.90;;;;;;6246772;23;20095;-89
2022/07/01 03:09:06;;;;;;;0.98;0.60;;;15.90;99.90;;;;;;6220258;23;20745;-88
2022/07/01 03:11:32;;;;;;;2.30;0.70;;;15.90;99.90;;;;;;6245403;23;20024;-87
2022/07/01 03:13:58;;;;;;;2.22;0.60;;;15.80;99.90;;;;;;6193687;23;20016;-87
2022/07/01 03:16:24;;;;;;;2.30;0.70;;;15.80;99.90;;;;;;6193588;23;20024;-87
2022/07/01 03:18:49;;;;;;;3.00;0.75;;;15.80;99.90;;;;;;6245467;23;20087;-87
2022/07/01 03:21:15;;;;;;;1.85;0.70;;;15.80;99.90;;;;;;6218527;23;20020;-87
2022/07/01 03:23:41;;;;;;;1.83;0.73;;;15.80;99.90;;;;;;6245617;23;20027;-87
2022/07/01 03:26:06;;;;;;;1.42;0.57;;;15.70;99.90;;;;;;6245452;23;20027;-87
2022/07/01 03:28:34;;;;;;;1.27;0.60;;;15.70;99.90;;;;;;6218455;23;20023;-87
2022/07/01 03:31:00;;;;;;;1.60;0.70;;;15.70;99.90;;;;;;6218708;23;20067;-87
2022/07/01 03:33:27;;;;;;;2.03;0.60;;;15.70;99.90;;;;;;6219589;23;20013;-87
2022/07/01 03:35:52;;;;;;;1.98;0.60;;;15.70;99.90;;;;;;6220550;23;20018;-87
2022/07/01 03:38:18;;;;;;;2.45;0.82;;;15.70;99.90;;;;;;6195338;23;20043;-89
2022/07/01 03:40:44;;;;;;;1.85;0.70;;;15.60;99.90;;;;;;6247402;23;20027;-88
2022/07/01 03:43:10;;;;;;;2.03;0.68;;;15.70;99.90;;;;;;6220334;23;20012;-89
2022/07/01 03:45:35;;;;;;;2.00;0.75;;;15.70;99.90;;;;;;6247260;23;20106;-88
2022/07/01 03:48:04;;;;;;;1.58;0.73;;;15.60;99.90;;;;;;6195232;23;20361;-87
2022/07/01 03:50:30;;;;;;;1.70;0.70;;;15.60;99.90;;;;;;6247084;23;20012;-87
2022/07/01 03:55:41;;;;;;;1.77;0.70;;;15.60;99.90;;;;;;6245688;23;20016;-88
2022/07/01 03:58:07;;;;;;;2.35;0.77;;;15.60;99.90;;;;;;6220244;23;20020;-89
2022/07/01 04:00:37;;;;;;;1.67;0.88;;;15.60;99.90;;;;;;6194864;23;20016;-89
2022/07/01 04:03:04;;;;;;;1.95;0.70;;;15.60;99.90;;;;;;6195011;23;20057;-88
2022/07/01 04:05:35;;;;;;;2.17;0.85;;;15.60;99.90;;;;;;6195155;23;20461;-88
2022/07/01 04:08:06;;;;;;;2.33;0.70;;;15.70;99.90;;;;;;6220081;23;20313;-88
2022/07/01 04:10:35;;;;;;;2.03;0.70;;;15.70;99.90;;;;;;6219954;23;20024;-87
2022/07/01 04:13:02;;;;;;;1.83;0.80;;;15.70;99.90;;;;;;6219973;23;20437;-88
2022/07/01 04:15:28;;;;;;;1.63;0.63;;;15.70;99.90;;;;;;6220113;23;20055;-88
2022/07/01 04:17:54;;;;;;;2.13;0.98;;;15.80;99.90;;;;;;6246815;23;20016;-91
2022/07/01 04:20:20;;;;;;;1.27;0.68;;;15.70;99.90;;;;;;6194953;23;20012;-88
2022/07/01 04:22:46;;;;;;;2.17;0.90;;;15.80;99.90;;;;;;6194765;23;20095;-91
2022/07/01 04:25:12;;;;;;;2.58;1.10;;;15.80;99.90;;;;;;6219836;23;20047;-90
2022/07/01 04:27:37;;;;;;;2.03;0.80;;;15.80;99.90;;;;;;6195512;23;20020;-90
2022/07/01 04:30:03;;;;;;;2.92;1.00;;;15.80;99.90;;;;;;6219812;23;20012;-88
2022/07/01 04:32:32;;;;;;;2.72;1.00;;;15.80;99.90;;;;;;6195125;23;20016;-89
2022/07/01 04:34:57;;;;;;;1.70;0.80;;;15.80;99.90;;;;;;6194901;23;20016;-88
2022/07/01 04:37:23;;;;;;;2.75;1.20;;;15.80;99.90;;;;;;6219777;23;20019;-88
2022/07/01 04:39:49;;;;;;;3.38;1.05;;;15.80;99.90;;;;;;6194793;23;20047;-89
2022/07/01 04:42:33;;;;;;;1.83;0.80;;;15.80;99.90;;;;;;6194808;23;20074;-89
2022/07/01 04:45:02;;;;;;;;;;;15.70;99.90;;;;;;6220500;23;20012;-89
2022/07/01 04:47:32;;;;;;;3.67;1.10;;;15.80;99.90;;;;;;6194673;23;19958;-88
2022/07/01 04:49:58;;;;;;;2.90;0.85;;;15.70;99.90;;;;;;6219708;23;20022;-87
2022/07/01 04:52:24;;;;;;;;;;;15.80;99.90;;;;;;6220167;23;20496;-87
2022/07/01 04:54:50;;;;;;;3.47;0.82;;;15.70;99.90;;;;;;6245620;23;19923;-88
2022/07/01 04:57:40;;;;;;;2.88;1.10;;;15.80;99.90;;;;;;6194630;23;20020;-86
2022/07/01 05:13:51;;;;;;;3.42;1.30;;;15.70;99.90;;;;;;6192500;22;20020;-91
2022/07/01 05:16:17;;;;;;;3.08;1.33;;;15.70;99.90;;;;;;6165911;23;20090;-92
2022/07/01 06:41:26;;;;;;;8.57;4.13;;;16.20;99.90;;;;;;6276834;22;20023;-89
2022/07/01 07:40:30;;;;;;;8.80;4.90;;;16.80;99.90;;;;;;6215873;22;20477;-94
2022/07/01 07:43:07;;;;;;;9.70;5.30;;;16.80;99.90;;;;;;6193572;23;20103;-91
2022/07/01 08:18:57;;;;;;;8.57;4.78;;;17.00;99.90;;;;;;6188725;23;20025;-90
2022/07/01 08:21:43;;;;;;;9.55;4.43;;;17.10;99.90;;;;;;6138239;23;20021;-92
2022/07/01 08:24:11;;;;;;;8.10;4.30;;;17.10;99.90;;;;;;6138615;23;20020;-91
2022/07/01 10:48:20;;;;;;;3.25;1.20;;;19.30;99.90;;;;;;6282725;22;20020;-95
2022/07/01 10:50:50;;;;;;;2.88;1.35;;;19.40;99.90;;;;;;6229311;22;20515;-90
2022/07/01 10:53:16;;;;;;;4.25;1.40;;;19.40;99.90;;;;;;6232716;22;20023;-94
2022/07/01 10:55:51;;;;;;;2.53;1.30;;;19.50;99.90;;;;;;6262187;22;20025;-92
2022/07/01 11:48:01;;;;;;;0.22;0.20;;;18.00;99.90;;;;;;6210035;23;20025;-91
2022/07/01 11:51:03;;;;;;;1.25;0.17;;;18.00;99.90;;;;;;6226507;23;20020;-90
2022/07/01 11:53:54;;;;;;;1.42;0.30;;;17.90;99.90;;;;;;6206327;23;20074;-90
2022/07/01 12:04:16;;;;;;;0.85;0.32;;;18.30;99.90;;;;;;6235181;22;20043;-91
2022/07/01 12:06:54;;;;;;;1.33;0.50;;;18.50;99.90;;;;;;6211849;23;20103;-91
2022/07/01 12:10:06;;;;;;;0.95;0.30;;;18.70;99.90;;;;;;6261621;23;20016;-90
2022/07/01 12:12:47;;;;;;;2.40;0.38;;;18.70;99.90;;;;;;6260418;23;20095;-95
2022/07/01 12:15:31;;;;;;;1.13;0.50;;;18.70;99.90;;;;;;6235098;23;20421;-94
2022/07/01 12:18:06;;;;;;;1.38;0.40;;;18.70;99.90;;;;;;6231959;23;20051;-91
2022/07/01 12:20:33;;;;;;;1.10;0.40;;;18.70;99.90;;;;;;6251121;23;20020;-96
2022/07/01 12:23:13;;;;;;;1.48;0.40;;;18.70;99.90;;;;;;6223109;23;20016;-91
2022/07/01 12:25:39;;;;;;;0.90;0.28;;;18.70;99.90;;;;;;6223407;23;20016;-90
2022/07/01 12:28:05;;;;;;;1.80;0.70;;;18.70;99.90;;;;;;6224141;23;20019;-91
2022/07/01 12:35:45;;;;;;;1.85;0.52;;;19.30;99.90;;;;;;6197486;22;20242;-90
2022/07/01 12:38:26;;;;;;;0.52;0.32;;;19.70;99.90;;;;;;6139421;23;20013;-94
2022/07/01 12:59:25;;;;;;;0.93;0.40;;;19.70;99.90;;;;;;6135631;23;20024;-90
2022/07/01 13:01:51;;;;;;;0.75;0.35;;;19.80;99.90;;;;;;6192834;23;20077;-94
2022/07/01 13:04:32;;;;;;;0.90;0.50;;;19.90;99.90;;;;;;6217950;23;20025;-89
2022/07/01 13:06:58;;;;;;;1.80;0.40;;;19.90;99.90;;;;;;6191828;23;20021;-91
2022/07/01 13:09:29;;;;;;;1.50;0.50;;;19.80;99.90;;;;;;6193263;23;20087;-93
2022/07/01 13:11:56;;;;;;;0.95;0.40;;;19.70;99.90;;;;;;6215809;23;20095;-93
2022/07/01 13:14:25;;;;;;;0.82;0.40;;;19.70;99.90;;;;;;6191272;23;20446;-95
2022/07/01 13:16:51;;;;;;;1.85;0.40;;;19.70;99.90;;;;;;6192388;23;20047;-92
2022/07/01 13:19:17;;;;;;;0.90;0.30;;;19.80;99.90;;;;;;6218150;23;20095;-92
2022/07/01 13:21:42;;;;;;;0.40;0.28;;;19.80;99.90;;;;;;6190229;23;20027;-93
2022/07/01 13:24:08;;;;;;;1.23;0.30;;;19.80;99.90;;;;;;6193550;23;20035;-93
2022/07/01 13:26:34;;;;;;;0.43;0.17;;;19.80;99.90;;;;;;6218092;23;20355;-94
2022/07/01 13:29:00;;;;;;;0.63;0.30;;;19.90;99.90;;;;;;6220929;23;20184;-95
2022/07/01 13:31:25;;;;;;;0.65;0.20;;;19.90;99.90;;;;;;6187905;23;20021;-94
2022/07/01 13:33:51;;;;;;;2.05;0.30;;;19.80;99.90;;;;;;6189442;23;20020;-94
2022/07/01 13:36:17;;;;;;;0.82;0.20;;;19.80;99.90;;;;;;6189925;23;20072;-93
2022/07/01 13:38:43;;;;;;;1.90;0.40;;;19.90;99.90;;;;;;6240352;23;20070;-92
2022/07/01 13:41:12;;;;;;;1.45;0.38;;;20.10;99.90;;;;;;6215938;23;20031;-94
2022/07/01 13:43:38;;;;;;;0.82;0.35;;;20.30;99.90;;;;;;6190804;23;20454;-93
2022/07/01 13:46:03;;;;;;;2.20;0.30;;;20.50;99.90;;;;;;6195247;23;20017;-92
2022/07/01 13:56:15;;;;;;;4.40;0.40;;;20.90;99.90;;;;;;6213403;22;20070;-89
2022/07/01 13:58:41;;;;;;;2.88;0.30;;;20.90;99.90;;;;;;6136631;23;20025;-91
2022/07/01 14:01:08;;;;;;;0.75;0.30;;;20.90;99.90;;;;;;6139210;23;20151;-91
2022/07/01 14:03:34;;;;;;;0.80;0.20;;;20.80;99.90;;;;;;6135757;23;20021;-89
2022/07/01 14:28:50;;;;;;;1.08;0.20;;;21.00;99.90;;;;;;6252783;22;20074;-92
2022/07/01 14:31:16;;;;;;;0.98;0.35;;;21.00;99.90;;;;;;6225709;22;20348;-93
2022/07/01 14:33:51;;;;;;;3.22;0.30;;;21.10;99.90;;;;;;6225695;22;20510;-93
2022/07/01 14:36:16;;;;;;;0.88;0.30;;;21.10;99.90;;;;;;6226719;22;20099;-95
2022/07/01 14:38:42;;;;;;;1.23;0.30;;;21.20;99.90;;;;;;6251052;22;20023;-94
2022/07/01 14:41:08;;;;;;;1.80;0.50;;;21.20;99.90;;;;;;6251973;22;20038;-93
2022/07/01 14:43:34;;;;;;;1.10;0.25;;;21.20;99.90;;;;;;6225798;22;20007;-96
2022/07/01 14:46:00;;;;;;;0.40;0.20;;;21.20;99.90;;;;;;6250573;22;20047;-94
2022/07/01 14:48:26;;;;;;;1.52;0.20;;;21.20;99.90;;;;;;6225610;22;20012;-95
2022/07/01 18:08:23;;;;;;;1.67;0.35;;;19.10;99.50;;;;;;6245329;22;20024;-91
2022/07/01 18:11:07;;;;;;;1.55;0.32;;;19.10;99.60;;;;;;6245422;23;20024;-92
2022/07/01 18:13:45;;;;;;;1.63;0.30;;;19.10;99.80;;;;;;6218252;23;20031;-91
2022/07/01 18:16:17;;;;;;;2.22;0.47;;;19.00;99.80;;;;;;6219664;23;20119;-90
2022/07/01 18:18:57;;;;;;;0.65;0.30;;;19.10;99.90;;;;;;6219825;23;20012;-94
2022/07/01 18:59:25;;;;;;;1.77;0.50;;;18.80;99.80;;;;;;6217795;22;20419;-90
2022/07/01 19:01:51;;;;;;;1.83;0.45;;;18.70;99.80;;;;;;6141338;23;20082;-89
2022/07/01 19:40:32;;;;;;;0.95;0.30;;;18.30;99.90;;;;;;6247521;22;20346;-89
2022/07/01 19:43:40;;;;;;;0.52;0.28;;;18.30;99.90;;;;;;6196171;23;20020;-91
2022/07/01 20:04:23;;;;;;;0.90;0.40;;;17.90;99.90;;;;;;6254233;22;20026;-95
2022/07/01 20:06:49;;;;;;;3.22;0.50;;;17.90;99.90;;;;;;6227473;22;20085;-89
2022/07/01 20:09:17;;;;;;;2.03;0.38;;;17.80;99.90;;;;;;6227375;22;20016;-88
2022/07/01 20:12:35;;;;;;;0.25;0.20;;;17.80;99.90;;;;;;6233921;22;20051;-91
2022/07/01 20:30:34;;;;;;;1.48;0.30;;;17.50;99.90;;;;;;6247375;22;20024;-93
2022/07/01 20:33:18;;;;;;;1.73;0.40;;;17.50;99.90;;;;;;6199265;23;20408;-90
2022/07/01 20:56:27;;;;;;;0.77;0.40;;;17.00;99.90;;;;;;6191351;23;20031;-90
2022/07/01 20:58:53;;;;;;;0.70;0.30;;;17.00;99.90;;;;;;6165152;23;20024;-92
2022/07/01 21:01:19;;;;;;;1.30;0.40;;;17.00;99.90;;;;;;6165523;23;20005;-90
2022/07/01 21:03:45;;;;;;;1.40;0.40;;;16.90;99.90;;;;;;6165392;23;20051;-91
2022/07/01 21:06:10;;;;;;;0.93;0.35;;;16.90;99.90;;;;;;6190184;23;20342;-90
2022/07/01 21:08:36;;;;;;;0.90;0.40;;;16.90;99.90;;;;;;6164965;23;20012;-90
2022/07/01 21:11:02;;;;;;;1.65;0.43;;;16.90;99.90;;;;;;6165240;23;20438;-91
2022/07/01 21:13:28;;;;;;;0.98;0.40;;;16.80;99.90;;;;;;6189913;23;20092;-89
2022/07/01 21:15:58;;;;;;;1.08;0.50;;;16.80;99.90;;;;;;6165146;23;20020;-90
2022/07/01 21:21:35;;;;;;;0.65;0.30;;;16.80;99.90;;;;;;6211751;22;20028;-92
2022/07/01 21:24:02;;;;;;;1.30;0.40;;;16.70;99.90;;;;;;6163391;23;20024;-91
2022/07/01 21:46:36;;;;;;;0.95;0.30;;;15.90;99.90;;;;;;6221306;22;20027;-91
2022/07/01 21:49:03;;;;;;;1.38;0.40;;;15.80;99.90;;;;;;6219387;23;20481;-89
2022/07/01 21:51:29;;;;;;;1.05;0.45;;;15.80;99.90;;;;;;6244412;23;20051;-90
2022/07/01 21:53:56;;;;;;;1.20;0.43;;;15.70;99.90;;;;;;6219084;23;20012;-90
2022/07/01 21:56:22;;;;;;;1.23;0.60;;;15.60;99.90;;;;;;6219448;23;20012;-90
2022/07/01 21:58:50;;;;;;;1.50;0.60;;;15.50;99.90;;;;;;6244809;23;20023;-90
2022/07/01 22:01:18;;;;;;;1.15;0.52;;;15.50;99.90;;;;;;6219344;23;20023;-90
2022/07/01 22:03:45;;;;;;;2.45;0.57;;;15.40;99.90;;;;;;6244789;23;20563;-89
2022/07/01 22:06:50;;;;;;;1.38;0.40;;;15.40;99.90;;;;;;6244700;23;20015;-89
2022/07/01 22:09:02;;;;;;;1.83;0.52;;;15.30;99.90;;;;;;6244374;23;20450;-89
2022/07/01 22:11:28;;;;;;;1.50;0.50;;;15.30;99.90;;;;;;6244634;23;20015;-90
2022/07/01 22:16:59;;;;;;;2.28;0.73;;;15.20;99.90;;;;;;6276438;22;20031;-94
2022/07/01 22:19:29;;;;;;;1.52;0.50;;;15.20;99.90;;;;;;6224568;22;20031;-95
2022/07/01 22:21:58;;;;;;;2.78;0.80;;;15.20;99.90;;;;;;6224555;22;20023;-95
2022/07/01 22:42:33;;;;;;;1.40;0.52;;;15.00;99.90;;;;;;6241321;22;20036;-91
2022/07/01 22:45:01;;;;;;;1.23;0.70;;;15.00;99.90;;;;;;6189585;23;20021;-91
2022/07/01 22:47:39;;;;;;;2.10;0.70;;;14.90;99.90;;;;;;6189456;23;20104;-92
2022/07/01 22:50:27;;;;;;;2.13;0.90;;;14.90;99.90;;;;;;6189419;23;20096;-92
2022/07/01 22:53:18;;;;;;;2.53;0.80;;;14.90;99.90;;;;;;6189410;23;20405;-93
2022/07/01 23:28:46;;;;;;;2.15;0.80;;;14.70;99.90;;;;;;6185451;22;20342;-92
2022/07/01 23:31:35;;;;;;;1.65;0.75;;;14.70;99.90;;;;;;6134802;23;20405;-93
2022/07/01 23:34:04;;;;;;;2.45;0.70;;;14.70;99.90;;;;;;6134861;23;20013;-92
2022/07/01 23:36:30;;;;;;;2.05;0.70;;;14.70;99.90;;;;;;6134715;23;20013;-92
2022/07/01 23:38:59;;;;;;;0.70;0.50;;;14.60;99.90;;;;;;6135101;23;20059;-92
2022/07/01 23:41:25;;;;;;;1.52;0.70;;;14.60;99.90;;;;;;6135076;23;20021;-93
2022/07/01 23:43:52;;;;;;;3.60;0.70;;;14.60;99.90;;;;;;6159119;23;20509;-92
2022/07/01 23:46:18;;;;;;;1.85;0.75;;;14.60;99.90;;;;;;6135351;23;20466;-92
2022/07/01 23:48:44;;;;;;;1.80;0.60;;;14.50;99.90;;;;;;6134817;23;20017;-92
2022/07/01 23:51:10;;;;;;;1.30;0.68;;;14.50;99.90;;;;;;6136966;23;20031;-93
2022/07/01 23:53:36;;;;;;;2.63;0.65;;;14.50;99.90;;;;;;6136787;23;20017;-92
2022/07/01 23:56:12;;;;;;;1.98;0.57;;;14.50;99.90;;;;;;6136628;23;20021;-92
